Погода Кишорганджна 2 недели

Дакка, Бангладеш

04 - 17 марта
  • 04марта
    Сегодня
    +19°
    +29°
    Ясно и безоблачно
    ВремяПогодаТемператураВлажностьДавлениеВетер, м/сВероятность осадков
    00:00Ясно и безоблачно+18°C85 %758 мм1.8 м/с2 %
    03:00Ясно и безоблачно+21°C81 %758 мм1.8 м/с2 %
    06:00Практически безоблачно+19°C80 %758 мм0.5 м/с2 %
    09:00Ясно и безоблачно+23°C66 %759 мм1.0 м/с3 %
    12:00Облачно с прояснениями+27°C51 %760 мм3.1 м/с13 %
    15:00Ясно и безоблачно+28°C50 %757 мм1.7 м/с2 %
    18:00Практически безоблачно+24°C68 %756 мм1.9 м/с2 %
    21:00Пасмурно, сплошная облачность+22°C74 %758 мм2.0 м/с6 %
  • 05марта
    Вторник
    +16°
    +29°
    Ясно и безоблачно
    ВремяПогодаТемператураВлажностьДавлениеВетер, м/сВероятность осадков
    00:00Ясно и безоблачно+22°C76 %758 мм2.3 м/с6 %
    03:00Ясно и безоблачно+22°C89 %758 мм2.1 м/с2 %
    06:00Ясно и безоблачно+20°C95 %758 мм1.8 м/с2 %
    09:00Ясно и безоблачно+23°C78 %760 мм1.4 м/с2 %
    12:00Ясно и безоблачно+27°C44 %759 мм3.4 м/с2 %
    15:00Ясно и безоблачно+28°C34 %757 мм4.4 м/с2 %
    18:00Ясно и безоблачно+24°C52 %757 мм2.3 м/с2 %
    21:00Ясно и безоблачно+22°C57 %758 мм2.5 м/с2 %
  • 06марта
    Среда
    +14°
    +27°
    Ясно и безоблачно
    ВремяПогодаТемператураВлажностьДавлениеВетер, м/сВероятность осадков
    00:00Ясно и безоблачно+19°C66 %758 мм2.5 м/с2 %
    03:00Ясно и безоблачно+17°C80 %758 мм2.4 м/с2 %
    06:00Ясно и безоблачно+16°C80 %759 мм2.2 м/с2 %
    09:00Ясно и безоблачно+20°C59 %760 мм1.5 м/с2 %
    12:00Ясно и безоблачно+25°C38 %759 мм1.9 м/с2 %
    15:00Ясно и безоблачно+27°C32 %757 мм1.8 м/с2 %
    18:00Ясно и безоблачно+22°C49 %756 мм2.3 м/с2 %
    21:00Ясно и безоблачно+20°C50 %758 мм2.7 м/с2 %
  • 07марта
    Четверг
    +15°
    +28°
    Ясно и безоблачно
    ВремяПогодаТемператураВлажностьДавлениеВетер, м/сВероятность осадков
    00:00Ясно и безоблачно+17°C69 %758 мм2.8 м/с2 %
    03:00Ясно и безоблачно+19°C66 %757 мм1.4 м/с2 %
    06:00Ясно и безоблачно+15°C77 %758 мм2.1 м/с2 %
    09:00Ясно и безоблачно+20°C61 %760 мм0.3 м/с2 %
    12:00Ясно и безоблачно+25°C38 %759 мм1.0 м/с2 %
    15:00Ясно и безоблачно+27°C31 %756 мм2.2 м/с2 %
    18:00Ясно и безоблачно+22°C53 %756 мм2.8 м/с2 %
    21:00Ясно и безоблачно+19°C58 %758 мм2.7 м/с2 %
  • 08марта
    Пятница
    +16°
    +28°
    Ясно и безоблачно
    ВремяПогодаТемператураВлажностьДавлениеВетер, м/сВероятность осадков
    00:00Ясно и безоблачно+17°C66 %758 мм2.2 м/с2 %
    03:00Ясно и безоблачно+19°C61 %757 мм1.2 м/с2 %
    06:00Ясно и безоблачно+16°C72 %758 мм1.6 м/с2 %
    09:00Ясно и безоблачно+21°C59 %760 мм0.7 м/с2 %
    12:00Ясно и безоблачно+26°C39 %759 мм1.0 м/с2 %
    15:00Ясно и безоблачно+28°C35 %757 мм1.3 м/с2 %
    18:00Ясно и безоблачно+24°C48 %757 мм1.8 м/с2 %
    21:00Ясно и безоблачно+19°C58 %758 мм2.6 м/с2 %
Мы используем cookies
Соглашаюсь